Time;durP1;ratioP1;P1;durP2;ratioP2;P2;SDS_P1;SDS_P2;PMS_P1;PMS_P2;Temp;Humidity;BMP_temperature;BMP_pressure;BME280_temperature;BME280_humidity;BME280_pressure;Samples;Min_cycle;Max_cycle;Signal;HPM_P1;HPM_P2
2021/12/23 00:00:48;;;;;;;;;;;3.20;57.30;;;;;;6216630;23;19919;-91
2021/12/23 00:03:14;;;;;;;;;;;3.20;57.30;;;;;;6217431;23;19908;-90
2021/12/23 00:05:39;;;;;;;;;;;3.20;57.30;;;;;;6217075;23;19916;-91
2021/12/23 00:08:05;;;;;;;;;;;3.20;57.40;;;;;;6218077;23;19908;-91
2021/12/23 00:10:30;;;;;;;;;;;3.30;57.40;;;;;;6218752;23;19916;-90
2021/12/23 00:12:56;;;;;;;;;;;3.30;57.50;;;;;;6220613;23;19908;-89
2021/12/23 00:25:36;;;;;;;;;;;3.40;57.80;;;;;;6223473;23;19927;-89
2021/12/23 00:28:01;;;;;;;;;;;3.40;57.90;;;;;;6193056;23;20229;-90
2021/12/23 00:30:27;;;;;;;;;;;3.50;58.00;;;;;;6220148;23;19996;-89
2021/12/23 00:32:55;;;;;;;;;;;3.50;58.00;;;;;;6217093;23;20331;-90
2021/12/23 00:35:20;;;;;;;;;;;3.50;58.00;;;;;;6192570;23;19966;-90
2021/12/23 00:37:49;;;;;;;;;;;3.60;58.00;;;;;;6192695;23;19978;-90
2021/12/23 00:40:17;;;;;;;;;;;3.60;58.00;;;;;;6217817;23;19995;-89
2021/12/23 00:42:42;;;;;;;;;;;3.60;58.00;;;;;;6218494;23;19908;-90
2021/12/23 00:45:08;;;;;;;;;;;3.70;58.00;;;;;;6192682;23;20276;-90
2021/12/23 00:47:34;;;;;;;;;;;3.70;58.00;;;;;;6192993;23;19915;-90
2021/12/23 00:49:59;;;;;;;;;;;3.70;58.10;;;;;;6218505;23;19916;-89
2021/12/23 00:52:36;;;;;;;;;;;3.80;58.20;;;;;;6218673;23;19990;-90
2021/12/23 00:55:03;;;;;;;;;;;3.80;58.20;;;;;;6218640;23;20017;-90
2021/12/23 00:57:30;;;;;;;;;;;3.80;58.20;;;;;;6219647;23;19903;-90
2021/12/23 00:59:56;;;;;;;;;;;3.90;58.30;;;;;;6217801;23;19923;-90
2021/12/23 01:02:29;;;;;;;;;;;4.00;58.20;;;;;;6191545;23;19904;-90
2021/12/23 01:04:55;;;;;;;;;;;4.00;58.30;;;;;;6193792;23;19919;-90
2021/12/23 01:07:20;;;;;;;;;;;4.10;58.30;;;;;;6191956;23;19911;-92
2021/12/23 01:09:46;;;;;;;;;;;4.10;58.30;;;;;;6218547;23;19919;-91
2021/12/23 01:12:13;;;;;;;;;;;4.20;58.30;;;;;;6218455;23;19910;-90
2021/12/23 01:14:53;;;;;;;;;;;4.20;58.30;;;;;;6191369;23;19912;-90
2021/12/23 01:19:50;;;;;;;;;;;4.30;58.30;;;;;;6220385;23;19947;-93
2021/12/23 01:22:16;;;;;;;;;;;4.30;58.30;;;;;;6194027;23;19908;-91
2021/12/23 01:24:42;;;;;;;;;;;4.30;58.40;;;;;;6192021;23;19983;-91
2021/12/23 01:27:07;;;;;;;;;;;4.30;58.40;;;;;;6218163;23;19911;-90
2021/12/23 01:29:33;;;;;;;;;;;4.30;58.30;;;;;;6217545;23;19916;-90
2021/12/23 01:32:02;;;;;;;;;;;4.30;58.40;;;;;;6217016;23;19911;-91
2021/12/23 01:34:28;;;;;;;;;;;4.30;58.40;;;;;;6193766;23;19912;-91
2021/12/23 01:36:54;;;;;;;;;;;4.30;58.40;;;;;;6218797;23;19912;-91
2021/12/23 01:39:20;;;;;;;;;;;4.30;58.40;;;;;;6222947;23;20182;-90
2021/12/23 01:41:46;;;;;;;;;;;4.30;58.40;;;;;;6224728;23;19937;-89
2021/12/23 01:44:11;;;;;;;;;;;4.30;58.40;;;;;;6198284;23;19908;-90
2021/12/23 01:46:37;;;;;;;;;;;4.30;58.30;;;;;;6222362;23;19908;-91
2021/12/23 01:49:03;;;;;;;;;;;4.30;58.30;;;;;;6223074;23;19912;-91
2021/12/23 01:51:28;;;;;;;;;;;4.40;58.40;;;;;;6221011;23;19908;-91
2021/12/23 01:53:55;;;;;;;;;;;4.50;58.50;;;;;;6224096;23;19954;-90
2021/12/23 01:56:23;;;;;;;;;;;4.40;58.50;;;;;;6198450;23;19955;-91
2021/12/23 01:58:49;;;;;;;;;;;4.50;58.50;;;;;;6195209;23;19911;-92
2021/12/23 02:01:14;;;;;;;;;;;4.50;58.60;;;;;;6221412;23;20268;-91
2021/12/23 02:03:41;;;;;;;;;;;4.60;58.60;;;;;;6218153;23;20686;-92
2021/12/23 02:06:07;;;;;;;;;;;4.50;58.70;;;;;;6219790;23;19912;-91
2021/12/23 02:08:33;;;;;;;;;;;4.60;58.70;;;;;;6219480;23;20387;-91
2021/12/23 02:10:59;;;;;;;;;;;4.60;58.80;;;;;;6196155;23;19943;-90
2021/12/23 02:13:24;;;;;;;;;;;4.60;58.80;;;;;;6222136;23;19916;-91
2021/12/23 02:15:50;;;;;;;;;;;4.60;58.80;;;;;;6219000;23;19999;-91
2021/12/23 02:18:16;;;;;;;;;;;4.70;58.80;;;;;;6221870;23;20316;-90
2021/12/23 02:20:41;;;;;;;;;;;4.70;58.80;;;;;;6197299;23;19962;-91
2021/12/23 02:23:08;;;;;;;;;;;4.70;58.80;;;;;;6218128;23;19984;-92
2021/12/23 02:25:34;;;;;;;;;;;4.70;58.80;;;;;;6191975;23;20140;-91
2021/12/23 02:28:04;;;;;;;;;;;4.70;58.90;;;;;;6219047;23;19913;-91
2021/12/23 02:30:30;;;;;;;;;;;4.70;58.90;;;;;;6218513;23;19912;-89
2021/12/23 02:32:56;;;;;;;;;;;4.80;59.00;;;;;;6192970;23;20015;-91
2021/12/23 02:35:22;;;;;;;;;;;4.80;59.00;;;;;;6192178;23;19908;-92
2021/12/23 02:37:48;;;;;;;;;;;4.80;59.10;;;;;;6191614;23;19908;-91
2021/12/23 02:40:27;;;;;;;;;;;4.80;59.10;;;;;;6218936;23;19919;-90
2021/12/23 02:42:53;;;;;;;;;;;4.90;59.10;;;;;;6220329;23;19955;-91
2021/12/23 02:45:19;;;;;;;;;;;4.90;59.20;;;;;;6191902;23;19916;-91
2021/12/23 02:47:45;;;;;;;;;;;4.90;59.20;;;;;;6216888;23;19959;-90
2021/12/23 02:50:12;;;;;;;;;;;5.00;59.10;;;;;;6217572;23;20233;-90
2021/12/23 02:52:38;;;;;;;;;;;5.00;59.10;;;;;;6192410;23;20339;-91
2021/12/23 02:55:04;;;;;;;;;;;5.10;59.10;;;;;;6218090;23;19923;-92
2021/12/23 02:57:30;;;;;;;;;;;5.00;59.00;;;;;;6191862;23;19911;-90
2021/12/23 02:59:56;;;;;;;;;;;5.00;59.00;;;;;;6220565;23;20284;-91
2021/12/23 03:02:22;;;;;;;;;;;5.10;59.10;;;;;;6219646;23;19904;-91
2021/12/23 03:04:47;;;;;;;;;;;5.10;59.10;;;;;;6192152;23;20007;-91
2021/12/23 03:07:12;;;;;;;;;;;5.10;59.10;;;;;;6219180;23;19904;-90
2021/12/23 03:09:38;;;;;;;;;;;5.10;59.10;;;;;;6217627;23;20478;-89
2021/12/23 03:12:04;;;;;;;;;;;5.10;59.00;;;;;;6217054;23;20007;-89
2021/12/23 03:14:29;;;;;;;;;;;5.10;59.20;;;;;;6192151;23;19915;-90
2021/12/23 03:16:55;;;;;;;;;;;5.20;59.30;;;;;;6218427;23;19967;-91
2021/12/23 03:19:20;;;;;;;;;;;5.20;59.20;;;;;;6216590;23;19976;-90
2021/12/23 03:21:45;;;;;;;;;;;5.30;59.30;;;;;;6192894;23;20236;-90
2021/12/23 03:24:12;;;;;;;;;;;5.30;59.20;;;;;;6194408;23;19904;-90
2021/12/23 03:26:37;;;;;;;;;;;5.30;59.20;;;;;;6194877;23;19963;-90
2021/12/23 03:29:03;;;;;;;;;;;5.30;59.10;;;;;;6220865;23;19907;-90
2021/12/23 03:31:29;;;;;;;;;;;5.30;59.20;;;;;;6220916;23;20378;-91
2021/12/23 03:33:54;;;;;;;;;;;5.30;59.20;;;;;;6217360;23;19908;-90
2021/12/23 03:36:20;;;;;;;;;;;5.30;59.20;;;;;;6218827;23;19912;-90
2021/12/23 03:38:45;;;;;;;;;;;5.30;59.20;;;;;;6217940;23;19950;-90
2021/12/23 03:41:11;;;;;;;;;;;5.30;59.20;;;;;;6192718;23;19892;-92
2021/12/23 03:43:36;;;;;;;;;;;5.30;59.20;;;;;;6217488;23;19912;-90
2021/12/23 03:46:02;;;;;;;;;;;5.40;59.20;;;;;;6216441;23;19966;-90
2021/12/23 03:48:27;;;;;;;;;;;5.40;59.20;;;;;;6219583;23;19995;-90
2021/12/23 03:50:53;;;;;;;;;;;5.40;59.20;;;;;;6194366;23;20234;-90
2021/12/23 03:53:18;;;;;;;;;;;5.50;59.30;;;;;;6219567;23;19919;-92
2021/12/23 03:55:44;;;;;;;;;;;5.50;59.20;;;;;;6193216;23;19908;-90
2021/12/23 03:58:10;;;;;;;;;;;5.60;59.10;;;;;;6217193;23;20295;-91
2021/12/23 04:00:35;;;;;;;;;;;5.60;59.10;;;;;;6192848;23;20525;-91
2021/12/23 04:03:01;;;;;;;;;;;5.70;59.10;;;;;;6220328;23;19915;-91
2021/12/23 04:05:27;;;;;;;;;;;5.60;59.10;;;;;;6192613;23;19941;-90
2021/12/23 04:07:52;;;;;;;;;;;5.70;59.10;;;;;;6220920;23;20305;-91
2021/12/23 04:10:21;;;;;;;;;;;5.70;59.20;;;;;;6221008;23;19904;-90
2021/12/23 04:12:47;;;;;;;;;;;5.70;59.10;;;;;;6194455;23;19916;-90
2021/12/23 04:15:12;;;;;;;;;;;5.70;59.10;;;;;;6195668;23;19942;-90
2021/12/23 04:17:40;;;;;;;;;;;5.70;59.20;;;;;;6194029;23;19916;-91
2021/12/23 04:20:16;;;;;;;;;;;5.70;59.10;;;;;;6219588;23;19904;-90
2021/12/23 04:22:42;;;;;;;;;;;5.70;59.10;;;;;;6192761;23;19916;-90
2021/12/23 04:25:08;;;;;;;;;;;5.70;59.00;;;;;;6191883;23;20186;-91
2021/12/23 04:27:33;;;;;;;;;;;5.70;59.00;;;;;;6192585;23;19915;-91
2021/12/23 04:29:59;;;;;;;;;;;5.70;59.00;;;;;;6218061;23;20325;-91
2021/12/23 04:32:24;;;;;;;;;;;5.70;59.10;;;;;;6219847;23;19924;-91
2021/12/23 04:34:50;;;;;;;;;;;5.70;59.10;;;;;;6218967;23;19927;-89
2021/12/23 04:37:16;;;;;;;;;;;5.70;59.20;;;;;;6218003;23;19912;-91
2021/12/23 04:39:41;;;;;;;;;;;5.60;59.20;;;;;;6219778;23;20289;-90
2021/12/23 04:42:08;;;;;;;;;;;5.70;59.20;;;;;;6217997;23;19947;-90
2021/12/23 04:44:34;;;;;;;;;;;5.60;59.30;;;;;;6219448;23;19908;-91
2021/12/23 04:46:59;;;;;;;;;;;5.70;59.40;;;;;;6219101;23;20438;-90
2021/12/23 04:49:24;;;;;;;;;;;5.60;59.30;;;;;;6219602;23;19912;-91
2021/12/23 04:51:50;;;;;;;;;;;5.60;59.30;;;;;;6220369;23;19912;-90
2021/12/23 04:54:15;;;;;;;;;;;5.60;59.30;;;;;;6220786;23;20331;-90
2021/12/23 04:56:41;;;;;;;;;;;5.50;59.40;;;;;;6221032;23;20205;-88
2021/12/23 04:59:06;;;;;;;;;;;5.50;59.30;;;;;;6195282;23;19904;-91
2021/12/23 05:01:33;;;;;;;;;;;5.50;59.20;;;;;;6218557;23;19939;-90
2021/12/23 05:03:58;;;;;;;;;;;5.50;59.20;;;;;;6192671;23;19931;-91
2021/12/23 05:06:24;;;;;;;;;;;5.40;59.30;;;;;;6191911;23;19919;-90
2021/12/23 05:08:49;;;;;;;;;;;5.40;59.20;;;;;;6218018;23;19934;-91
2021/12/23 05:11:16;;;;;;;;;;;5.40;59.30;;;;;;6219141;23;19916;-90
2021/12/23 05:13:42;;;;;;;;;;;5.40;59.30;;;;;;6216360;23;19904;-91
2021/12/23 05:16:08;;;;;;;;;;;5.50;59.30;;;;;;6192933;23;19910;-90
2021/12/23 05:18:33;;;;;;;;;;;5.40;59.20;;;;;;6220265;23;19951;-91
2021/12/23 05:20:59;;;;;;;;;;;5.50;59.20;;;;;;6192764;23;19938;-91
2021/12/23 05:23:24;;;;;;;;;;;5.50;59.10;;;;;;6219733;23;20317;-91
2021/12/23 05:25:50;;;;;;;;;;;5.50;59.00;;;;;;6219287;23;19915;-91
2021/12/23 05:28:15;;;;;;;;;;;5.60;59.00;;;;;;6217943;23;19911;-91
2021/12/23 05:30:41;;;;;;;;;;;5.60;59.00;;;;;;6218563;23;19959;-90
2021/12/23 05:33:06;;;;;;;;;;;5.60;59.00;;;;;;6219811;23;19919;-90
2021/12/23 05:35:32;;;;;;;;;;;5.70;59.00;;;;;;6193788;23;19912;-90
2021/12/23 05:37:58;;;;;;;;;;;5.70;59.10;;;;;;6194042;23;19942;-91
2021/12/23 05:40:24;;;;;;;;;;;5.70;59.00;;;;;;6220820;23;19911;-91
2021/12/23 05:42:50;;;;;;;;;;;5.80;59.00;;;;;;6193753;23;19960;-91
2021/12/23 05:45:16;;;;;;;;;;;5.80;59.00;;;;;;6220969;23;19940;-91
2021/12/23 05:47:42;;;;;;;;;;;5.80;58.90;;;;;;6193118;23;19915;-92
2021/12/23 05:50:08;;;;;;;;;;;5.80;59.00;;;;;;6193447;23;20676;-92
2021/12/23 05:52:34;;;;;;;;;;;5.70;59.00;;;;;;6221385;23;19912;-90
2021/12/23 05:55:02;;;;;;;;;;;5.80;59.00;;;;;;6193124;23;19908;-90
2021/12/23 05:57:28;;;;;;;;;;;5.80;59.00;;;;;;6219011;23;19938;-90
2021/12/23 05:59:53;;;;;;;;;;;5.80;59.00;;;;;;6219227;23;19956;-90
2021/12/23 06:02:19;;;;;;;;;;;5.80;58.90;;;;;;6220404;23;19912;-91
2021/12/23 06:04:44;;;;;;;;;;;5.80;58.90;;;;;;6218145;23;19946;-91
2021/12/23 06:07:10;;;;;;;;;;;5.80;58.90;;;;;;6195951;23;19956;-91
2021/12/23 06:09:36;;;;;;;;;;;5.80;58.90;;;;;;6219666;23;19912;-92
2021/12/23 06:12:01;;;;;;;;;;;5.80;59.00;;;;;;6219148;23;19915;-90
2021/12/23 06:14:27;;;;;;;;;;;5.70;59.10;;;;;;6193661;23;20045;-91
2021/12/23 06:16:52;;;;;;;;;;;5.80;59.00;;;;;;6193625;23;19915;-92
2021/12/23 06:19:18;;;;;;;;;;;5.80;59.00;;;;;;6219289;23;19915;-90
2021/12/23 06:21:43;;;;;;;;;;;5.80;59.00;;;;;;6219706;23;19908;-91
2021/12/23 06:24:09;;;;;;;;;;;5.80;59.00;;;;;;6218059;23;19987;-90
2021/12/23 06:26:34;;;;;;;;;;;5.80;59.10;;;;;;6219030;23;20650;-91
2021/12/23 06:29:00;;;;;;;;;;;5.70;59.10;;;;;;6220534;23;19982;-91
2021/12/23 06:31:25;;;;;;;;;;;5.80;59.10;;;;;;6217977;23;19912;-91
2021/12/23 06:33:51;;;;;;;;;;;5.80;59.20;;;;;;6192846;23;19955;-91
2021/12/23 06:36:17;;;;;;;;;;;5.80;59.20;;;;;;6216936;23;20516;-89
2021/12/23 06:38:43;;;;;;;;;;;5.80;59.30;;;;;;6217085;23;19908;-90
2021/12/23 06:41:09;;;;;;;;;;;5.90;59.30;;;;;;6192028;23;19994;-90
2021/12/23 06:43:34;;;;;;;;;;;5.90;59.30;;;;;;6192093;23;19947;-91
2021/12/23 06:46:00;;;;;;;;;;;5.90;59.20;;;;;;6219134;23;19908;-90
2021/12/23 06:48:26;;;;;;;;;;;6.00;59.20;;;;;;6218506;23;19912;-91
2021/12/23 06:50:56;;;;;;;;;;;6.00;59.20;;;;;;6219215;23;19904;-90
2021/12/23 06:53:22;;;;;;;;;;;6.00;59.20;;;;;;6193009;23;20009;-90
2021/12/23 06:55:50;;;;;;;;;;;6.00;59.20;;;;;;6219801;23;19904;-90
2021/12/23 06:58:15;;;;;;;;;;;6.00;59.10;;;;;;6192553;23;19912;-91
2021/12/23 07:00:41;;;;;;;;;;;5.90;59.10;;;;;;6217599;23;20328;-91
2021/12/23 07:03:06;;;;;;;;;;;6.00;59.10;;;;;;6219939;23;20223;-90
2021/12/23 07:05:32;;;;;;;;;;;6.00;59.00;;;;;;6192909;23;19923;-91
2021/12/23 07:08:05;;;;;;;;;;;5.90;58.90;;;;;;6217810;23;19919;-90
2021/12/23 07:10:32;;;;;;;;;;;5.90;58.90;;;;;;6219199;23;20248;-90
2021/12/23 07:12:58;;;;;;;;;;;6.00;59.00;;;;;;6193792;23;19915;-91
2021/12/23 07:15:24;;;;;;;;;;;5.90;59.00;;;;;;6220475;23;20001;-90
2021/12/23 07:17:50;;;;;;;;;;;5.90;59.00;;;;;;6191748;23;19912;-90
2021/12/23 07:20:16;;;;;;;;;;;5.80;59.10;;;;;;6193242;23;19900;-92
2021/12/23 07:22:41;;;;;;;;;;;5.90;59.30;;;;;;6217195;23;19942;-90
2021/12/23 07:25:07;;;;;;;;;;;5.80;59.30;;;;;;6217513;23;19908;-91
2021/12/23 07:27:33;;;;;;;;;;;5.90;59.30;;;;;;6192200;23;19908;-91
2021/12/23 07:29:58;;;;;;;;;;;5.90;59.30;;;;;;6219460;23;19915;-91
2021/12/23 07:32:26;;;;;;;;;;;5.90;59.30;;;;;;6218029;23;19912;-92
2021/12/23 07:34:53;;;;;;;;;;;5.90;59.30;;;;;;6217890;23;19962;-91
2021/12/23 07:37:19;;;;;;;;;;;5.90;59.30;;;;;;6192235;23;19918;-91
2021/12/23 07:39:47;;;;;;;;;;;6.00;59.30;;;;;;6192278;23;20261;-90
2021/12/23 07:42:15;;;;;;;;;;;6.00;59.30;;;;;;6218703;23;19915;-89
2021/12/23 07:44:44;;;;;;;;;;;6.00;59.30;;;;;;6190793;23;19962;-89
2021/12/23 07:47:10;;;;;;;;;;;6.00;59.30;;;;;;6191903;23;19912;-91
2021/12/23 07:49:35;;;;;;;;;;;6.00;59.20;;;;;;6218047;23;19912;-90
2021/12/23 07:52:01;;;;;;;;;;;6.00;59.10;;;;;;6220148;23;19961;-91
2021/12/23 07:54:26;;;;;;;;;;;6.00;59.00;;;;;;6192280;23;20305;-91
2021/12/23 07:56:52;;;;;;;;;;;6.00;58.90;;;;;;6216936;23;19919;-91
2021/12/23 07:59:17;;;;;;;;;;;5.90;58.90;;;;;;6217991;23;19904;-91
2021/12/23 08:01:43;;;;;;;;;;;5.90;58.80;;;;;;6220635;23;19916;-90
2021/12/23 08:04:08;;;;;;;;;;;5.90;58.70;;;;;;6218452;23;19904;-91
2021/12/23 08:06:34;;;;;;;;;;;5.90;58.60;;;;;;6216929;23;20228;-91
2021/12/23 08:08:59;;;;;;;;;;;5.90;58.80;;;;;;6221214;23;19908;-92
2021/12/23 08:11:26;;;;;;;;;;;6.00;58.90;;;;;;6215541;23;19940;-90
2021/12/23 08:13:51;;;;;;;;;;;6.00;59.00;;;;;;6217969;23;20255;-91
2021/12/23 08:16:17;;;;;;;;;;;6.00;59.10;;;;;;6215722;23;20049;-91
2021/12/23 08:18:42;;;;;;;;;;;6.10;59.10;;;;;;6216339;23;19924;-91
2021/12/23 08:21:08;;;;;;;;;;;6.10;59.10;;;;;;6217780;23;19908;-91
2021/12/23 08:23:33;;;;;;;;;;;6.10;59.20;;;;;;6190982;23;19915;-91
2021/12/23 08:26:03;;;;;;;;;;;6.20;59.30;;;;;;6216134;23;20280;-91
2021/12/23 08:28:28;;;;;;;;;;;6.20;59.30;;;;;;6218254;23;20252;-91
2021/12/23 08:30:54;;;;;;;;;;;6.20;59.30;;;;;;6193954;23;19966;-90
2021/12/23 08:33:19;;;;;;;;;;;6.30;59.40;;;;;;6220385;23;19904;-92
2021/12/23 08:35:45;;;;;;;;;;;6.30;59.30;;;;;;6218162;23;19907;-91
2021/12/23 08:38:10;;;;;;;;;;;6.30;59.40;;;;;;6216389;23;20213;-88
2021/12/23 08:40:36;;;;;;;;;;;6.30;59.30;;;;;;6215918;23;20293;-88
2021/12/23 08:43:02;;;;;;;;;;;6.30;59.40;;;;;;6217576;23;19915;-89
2021/12/23 08:45:28;;;;;;;;;;;6.30;59.30;;;;;;6189641;23;19918;-87
2021/12/23 08:47:57;;;;;;;;;;;6.30;59.30;;;;;;6191007;23;19912;-88
2021/12/23 08:50:23;;;;;;;;;;;6.40;59.40;;;;;;6189235;23;19982;-88
2021/12/23 08:52:49;;;;;;;;;;;6.40;59.40;;;;;;6189693;23;19923;-90
2021/12/23 08:55:15;;;;;;;;;;;6.40;59.30;;;;;;6192463;23;19912;-90
2021/12/23 08:57:41;;;;;;;;;;;6.30;59.30;;;;;;6220872;23;19919;-91
2021/12/23 09:00:09;;;;;;;;;;;6.30;59.50;;;;;;6220001;23;19914;-90
2021/12/23 09:02:34;;;;;;;;;;;6.30;59.30;;;;;;6219652;23;19919;-91
2021/12/23 09:05:00;;;;;;;;;;;6.30;59.40;;;;;;6217698;23;19907;-90
2021/12/23 09:07:25;;;;;;;;;;;6.30;59.30;;;;;;6218257;23;19912;-89
2021/12/23 09:09:51;;;;;;;;;;;6.40;59.50;;;;;;6218627;23;19907;-90
2021/12/23 09:12:17;;;;;;;;;;;6.40;59.60;;;;;;6219555;23;19986;-91
2021/12/23 09:14:43;;;;;;;;;;;6.40;59.60;;;;;;6220014;23;19966;-92
2021/12/23 09:17:09;;;;;;;;;;;6.40;59.60;;;;;;6218089;23;19916;-92
2021/12/23 09:19:34;;;;;;;;;;;6.50;59.70;;;;;;6219506;23;19939;-92
2021/12/23 09:22:00;;;;;;;;;;;6.60;59.80;;;;;;6219973;23;19912;-90
2021/12/23 09:24:26;;;;;;;;;;;6.60;59.90;;;;;;6219605;23;19911;-91
2021/12/23 09:26:59;;;;;;;;;;;6.70;59.90;;;;;;6219820;23;20316;-91
2021/12/23 09:34:59;;;;;;;;;;;6.80;59.80;;;;;;6219015;23;19926;-88
2021/12/23 09:37:26;;;;;;;;;;;6.80;59.90;;;;;;6218248;23;19912;-90
2021/12/23 09:39:58;;;;;;;;;;;6.80;59.90;;;;;;6192648;23;20361;-87
2021/12/23 09:42:26;;;;;;;;;;;6.90;59.90;;;;;;6215770;23;19904;-89
2021/12/23 09:44:56;;;;;;;;;;;7.00;60.10;;;;;;6189560;23;19987;-89
2021/12/23 09:47:25;;;;;;;;;;;7.00;60.10;;;;;;6190033;23;20336;-89
2021/12/23 09:49:50;;;;;;;;;;;7.10;59.90;;;;;;6190427;23;19920;-90
2021/12/23 09:52:16;;;;;;;;;;;7.10;59.70;;;;;;6217016;23;20371;-89
2021/12/23 09:54:42;;;;;;;;;;;7.20;59.70;;;;;;6215197;23;19912;-89
2021/12/23 09:57:07;;;;;;;;;;;7.20;59.60;;;;;;6190581;23;19915;-89
2021/12/23 09:59:32;;;;;;;;;;;7.20;59.50;;;;;;6215899;23;19916;-89
2021/12/23 10:01:58;;;;;;;;;;;7.20;59.60;;;;;;6189798;23;19914;-89
2021/12/23 10:04:25;;;;;;;;;;;7.20;59.50;;;;;;6189917;23;20002;-88
2021/12/23 10:06:51;;;;;;;;;;;7.30;59.70;;;;;;6188893;23;20241;-88
2021/12/23 10:09:32;;;;;;;;;;;7.30;59.60;;;;;;6214363;23;19912;-89
2021/12/23 10:31:03;;;;;;;;;;;7.70;59.70;;;;;;6217544;23;19912;-89
2021/12/23 10:33:46;;;;;;;;;;;7.80;59.60;;;;;;6214474;23;19919;-89
2021/12/23 10:38:42;;;;;;;;;;;8.00;59.30;;;;;;6218021;23;20268;-90
2021/12/23 10:41:13;;;;;;;;;;;8.00;59.10;;;;;;6190865;23;19908;-90
2021/12/23 10:43:40;;;;;;;;;;;8.00;59.00;;;;;;6216880;23;19912;-89
2021/12/23 10:46:10;;;;;;;;;;;8.10;59.00;;;;;;6216595;23;19954;-90
2021/12/23 10:51:58;;;;;;;;;;;8.10;58.90;;;;;;6217521;23;19915;-90
2021/12/23 10:58:00;;;;;;;;;;;8.10;59.00;;;;;;6190655;23;20588;-90
2021/12/23 11:00:20;;;;;;;;;;;8.10;59.10;;;;;;6218546;23;19970;-91
2021/12/23 11:02:59;;;;;;;;;;;8.10;59.10;;;;;;6190521;23;20241;-91
2021/12/23 11:05:29;;;;;;;;;;;8.10;59.00;;;;;;6217216;23;19962;-90
2021/12/23 11:35:46;;;;;;;;;;;8.00;60.10;;;;;;6216821;23;19958;-90
2021/12/23 11:41:48;;;;;;;;;;;8.00;60.30;;;;;;6215959;23;19918;-90
2021/12/23 11:50:18;;;;;;;;;;;7.70;60.80;;;;;;6216110;23;20269;-91
2021/12/23 11:52:44;;;;;;;;;;;7.70;61.00;;;;;;6214424;23;19916;-90
2021/12/23 11:55:10;;;;;;;;;;;7.70;61.00;;;;;;6216124;23;20383;-91
2021/12/23 11:57:38;;;;;;;;;;;7.70;61.00;;;;;;6190252;23;19986;-92
2021/12/23 12:02:42;;;;;;;;;;;7.60;61.20;;;;;;6226788;23;20332;-91
2021/12/23 12:05:14;;;;;;;;;;;7.70;61.30;;;;;;6216717;23;19955;-91
2021/12/23 12:11:12;;;;;;;;;;;7.70;61.40;;;;;;6219326;23;20339;-92
2021/12/23 12:13:39;;;;;;;;;;;7.70;61.60;;;;;;6191540;23;19912;-91
2021/12/23 12:16:24;;;;;;;;;;;7.70;61.80;;;;;;6216976;23;19916;-92
2021/12/23 12:18:49;;;;;;;;;;;7.80;61.80;;;;;;6216614;23;19911;-92
2021/12/23 12:21:20;;;;;;;;;;;7.90;61.60;;;;;;6192123;23;19974;-90
2021/12/23 12:23:45;;;;;;;;;;;7.90;61.60;;;;;;6192086;23;19908;-90
2021/12/23 12:26:24;;;;;;;;;;;8.00;61.50;;;;;;6216993;23;19958;-92
2021/12/23 12:28:50;;;;;;;;;;;8.00;61.50;;;;;;6218322;23;20615;-90
2021/12/23 12:31:20;;;;;;;;;;;7.90;61.30;;;;;;6191444;23;19908;-91
2021/12/23 12:33:55;;;;;;;;;;;7.90;61.40;;;;;;6191041;23;19908;-91
2021/12/23 12:36:21;;;;;;;;;;;7.90;61.70;;;;;;6191909;23;19994;-90
2021/12/23 12:38:52;;;;;;;;;;;7.80;61.50;;;;;;6191105;23;19908;-91
2021/12/23 12:41:18;;;;;;;;;;;7.90;61.80;;;;;;6191030;23;20289;-91
2021/12/23 12:46:10;;;;;;;;;;;8.00;61.90;;;;;;6217286;23;19923;-90
2021/12/23 12:49:00;;;;;;;;;;;8.00;61.90;;;;;;6190701;23;19930;-90
2021/12/23 12:51:32;;;;;;;;;;;8.10;61.80;;;;;;6203735;23;19923;-90
2021/12/23 12:54:03;;;;;;;;;;;8.20;61.80;;;;;;6217519;23;19947;-90
2021/12/23 12:56:29;;;;;;;;;;;8.20;61.70;;;;;;6191265;23;20569;-89
2021/12/23 12:58:55;;;;;;;;;;;8.20;61.80;;;;;;6216996;23;20229;-90
2021/12/23 13:01:41;;;;;;;;;;;8.30;61.60;;;;;;6190583;23;19916;-90
2021/12/23 13:04:19;;;;;;;;;;;8.40;61.50;;;;;;6215872;23;19927;-90
2021/12/23 13:06:44;;;;;;;;;;;8.40;61.50;;;;;;6215391;23;20337;-90
2021/12/23 13:09:15;;;;;;;;;;;8.50;61.30;;;;;;6215497;23;19991;-92
2021/12/23 13:11:42;;;;;;;;;;;8.50;61.40;;;;;;6190694;23;19940;-91
2021/12/23 13:14:13;;;;;;;;;;;8.50;61.40;;;;;;6217484;23;19991;-91
2021/12/23 13:16:49;;;;;;;;;;;8.50;61.10;;;;;;6191318;23;19922;-90
2021/12/23 13:19:21;;;;;;;;;;;8.50;61.00;;;;;;6215321;23;19912;-92
2021/12/23 13:21:55;;;;;;;;;;;8.50;61.10;;;;;;6216904;23;19912;-91
2021/12/23 13:24:22;;;;;;;;;;;8.60;61.10;;;;;;6217361;23;19952;-92
2021/12/23 13:26:48;;;;;;;;;;;8.60;61.10;;;;;;6191023;23;19918;-89
2021/12/23 13:29:13;;;;;;;;;;;8.60;61.30;;;;;;6190946;23;19943;-90
2021/12/23 13:31:39;;;;;;;;;;;8.60;61.20;;;;;;6214911;23;19934;-90
2021/12/23 13:34:16;;;;;;;;;;;8.70;61.20;;;;;;6217524;23;19968;-90
2021/12/23 13:36:44;;;;;;;;;;;8.70;61.10;;;;;;6191056;23;19962;-90
2021/12/23 13:39:20;;;;;;;;;;;8.60;60.80;;;;;;6191205;23;19914;-90
2021/12/23 13:41:47;;;;;;;;;;;8.60;61.00;;;;;;6215742;23;20317;-90
2021/12/23 13:44:17;;;;;;;;;;;8.60;61.00;;;;;;6191111;23;19916;-90
2021/12/23 13:46:44;;;;;;;;;;;8.60;61.20;;;;;;6191767;23;19987;-90
2021/12/23 13:49:10;;;;;;;;;;;8.60;61.30;;;;;;6218054;23;19966;-91
2021/12/23 13:51:37;;;;;;;;;;;8.60;61.30;;;;;;6219590;23;19923;-91
2021/12/23 13:54:07;;;;;;;;;;;8.70;61.40;;;;;;6216952;23;19911;-90
2021/12/23 13:56:33;;;;;;;;;;;8.70;61.40;;;;;;6190586;23;19919;-90
2021/12/23 13:59:15;;;;;;;;;;;8.70;61.50;;;;;;6190032;23;19904;-90
2021/12/23 14:01:55;;;;;;;;;;;8.80;61.50;;;;;;6189928;23;20240;-91
2021/12/23 14:04:47;;;;;;;;;;;8.90;61.60;;;;;;6190233;23;19904;-91
2021/12/23 14:07:12;;;;;;;;;;;8.90;61.50;;;;;;6209388;23;20331;-91
2021/12/23 14:10:04;;;;;;;;;;;9.00;61.70;;;;;;6217969;23;19904;-91
2021/12/23 14:15:36;;;;;;;;;;;9.20;61.40;;;;;;6217389;23;20230;-91
2021/12/23 14:18:05;;;;;;;;;;;9.20;61.70;;;;;;6217409;23;19919;-92
2021/12/23 14:23:18;;;;;;;;;;;9.30;61.60;;;;;;6217383;23;19951;-92
2021/12/23 14:25:45;;;;;;;;;;;9.40;61.60;;;;;;6217703;23;19965;-92
2021/12/23 14:28:12;;;;;;;;;;;9.50;61.70;;;;;;6217828;23;19904;-92
2021/12/23 14:30:39;;;;;;;;;;;9.50;61.60;;;;;;6190705;23;19962;-91
2021/12/23 14:33:06;;;;;;;;;;;9.60;61.60;;;;;;6190449;23;19979;-92
2021/12/23 14:35:31;;;;;;;;;;;9.60;61.60;;;;;;6217524;23;19943;-90
2021/12/23 14:38:00;;;;;;;;;;;9.70;61.70;;;;;;6216188;23;19904;-92
2021/12/23 14:40:25;;;;;;;;;;;9.70;61.60;;;;;;6216986;23;19912;-92
2021/12/23 14:42:58;;;;;;;;;;;9.80;61.50;;;;;;6218002;23;19915;-92
2021/12/23 14:45:24;;;;;;;;;;;9.80;61.70;;;;;;6190381;23;19995;-91
2021/12/23 14:48:00;;;;;;;;;;;9.80;61.70;;;;;;6216066;23;20297;-92
2021/12/23 14:50:37;;;;;;;;;;;9.90;61.80;;;;;;6190151;23;20400;-91
2021/12/23 14:53:15;;;;;;;;;;;9.90;61.90;;;;;;6217917;23;19951;-90
2021/12/23 14:55:41;;;;;;;;;;;10.00;61.80;;;;;;6190885;23;20249;-91
2021/12/23 14:58:06;;;;;;;;;;;10.00;61.60;;;;;;6216413;23;19984;-90
2021/12/23 15:00:43;;;;;;;;;;;10.10;61.70;;;;;;6217843;23;20297;-91
2021/12/23 15:03:08;;;;;;;;;;;10.10;61.50;;;;;;6216369;23;20224;-91
2021/12/23 15:05:35;;;;;;;;;;;10.10;61.60;;;;;;6189782;23;19920;-91
2021/12/23 15:08:03;;;;;;;;;;;10.10;61.50;;;;;;6190508;23;19932;-91
2021/12/23 15:10:31;;;;;;;;;;;10.10;61.60;;;;;;6190257;23;19912;-91
2021/12/23 15:12:57;;;;;;;;;;;10.10;61.70;;;;;;6216974;23;19904;-91
2021/12/23 15:15:28;;;;;;;;;;;10.20;61.70;;;;;;6190437;23;19919;-91
2021/12/23 15:17:59;;;;;;;;;;;10.20;61.80;;;;;;6215324;23;19904;-90
2021/12/23 15:20:28;;;;;;;;;;;10.20;61.90;;;;;;6215024;23;19920;-91
2021/12/23 15:22:56;;;;;;;;;;;10.20;61.90;;;;;;6189948;23;19904;-91
2021/12/23 15:25:32;;;;;;;;;;;10.30;61.90;;;;;;6189970;23;19920;-91
2021/12/23 15:27:57;;;;;;;;;;;10.30;61.80;;;;;;6214762;23;19907;-91
2021/12/23 15:30:28;;;;;;;;;;;10.40;61.70;;;;;;6215995;23;19923;-91
2021/12/23 15:32:54;;;;;;;;;;;10.40;61.60;;;;;;6216493;23;19904;-90
2021/12/23 15:35:20;;;;;;;;;;;10.40;61.70;;;;;;6189631;23;19927;-91
2021/12/23 15:37:51;;;;;;;;;;;10.40;61.80;;;;;;6214104;23;19939;-91
2021/12/23 15:40:20;;;;;;;;;;;10.40;61.80;;;;;;6216711;23;19916;-91
2021/12/23 15:42:46;;;;;;;;;;;10.40;61.90;;;;;;6190746;23;20320;-91
2021/12/23 15:45:11;;;;;;;;;;;10.40;61.80;;;;;;6191317;23;19982;-91
2021/12/23 15:47:40;;;;;;;;;;;10.50;61.90;;;;;;6218430;23;19908;-91
2021/12/23 15:50:06;;;;;;;;;;;10.50;62.00;;;;;;6218806;23;19908;-90
2021/12/23 15:52:32;;;;;;;;;;;10.50;62.00;;;;;;6191973;23;19987;-91
2021/12/23 15:54:57;;;;;;;;;;;10.50;62.00;;;;;;6216902;23;19923;-91
2021/12/23 15:57:23;;;;;;;;;;;10.60;61.90;;;;;;6192093;23;19958;-91
2021/12/23 15:59:53;;;;;;;;;;;10.60;61.90;;;;;;6191702;23;19942;-90
2021/12/23 16:02:21;;;;;;;;;;;10.60;61.80;;;;;;6216795;23;19934;-91
2021/12/23 16:07:27;;;;;;;;;;;10.70;61.90;;;;;;6217409;23;19920;-91
2021/12/23 16:09:55;;;;;;;;;;;10.70;62.10;;;;;;6191631;23;20547;-91